Time,TemperatureF,DewpointF,PressureIn,WindDirection,WindDirectionDegrees,WindSpeedMPH,WindSpeedGustMPH,Humidity,HourlyPrecipIn,Conditions,Clouds,dailyrainin,SoftwareType,DateUTC
2013-03-27 00:12:00,33.1,29.0,29.97,SW,230,0.0,-999.0,83,-99.99,,,0.00,weatherlink.com 1.10,2013-03-27 04:12:00,
2013-03-27 00:27:00,32.8,28.0,29.97,SW,230,0.0,-999.0,82,-99.99,,,0.00,weatherlink.com 1.10,2013-03-27 04:27:00,
2013-03-27 00:42:00,32.5,27.0,29.97,WSW,250,0.0,-999.0,81,-99.99,,,0.00,weatherlink.com 1.10,2013-03-27 04:42:00,
2013-03-27 00:57:00,32.5,27.0,29.97,WSW,252,2.0,-999.0,80,-99.99,,,0.00,weatherlink.com 1.10,2013-03-27 04:57:00,
2013-03-27 01:12:00,32.5,26.0,29.97,SW,221,0.0,-999.0,78,-99.99,,,0.00,weatherlink.com 1.10,2013-03-27 05:12:00,
2013-03-27 01:27:00,32.7,27.0,29.97,SW,222,0.0,-999.0,78,-99.99,,,0.00,weatherlink.com 1.10,2013-03-27 05:27:00,
2013-03-27 01:42:00,32.4,27.0,29.97,SSW,212,0.0,-999.0,79,-99.99,,,0.00,weatherlink.com 1.10,2013-03-27 05:42:00,
2013-03-27 01:57:00,32.2,26.0,29.97,SSW,211,0.0,-999.0,79,-99.99,,,0.00,weatherlink.com 1.10,2013-03-27 05:57:00,
2013-03-27 02:12:00,31.9,26.0,29.97,WSW,248,0.0,-999.0,79,-99.99,,,0.00,weatherlink.com 1.10,2013-03-27 06:12:00,
2013-03-27 02:27:00,31.8,26.0,29.97,WSW,250,0.0,-999.0,78,-99.99,,,0.00,weatherlink.com 1.10,2013-03-27 06:27:00,
2013-03-27 02:42:00,31.6,25.0,29.97,SSW,210,1.0,-999.0,78,-99.99,,,0.00,weatherlink.com 1.10,2013-03-27 06:42:00,
2013-03-27 02:57:00,31.3,25.0,29.97,WSW,250,0.0,-999.0,78,-99.99,,,0.00,weatherlink.com 1.10,2013-03-27 06:57:00,
2013-03-27 03:12:00,31.3,25.0,29.96,WSW,239,0.0,-999.0,78,-99.99,,,0.00,weatherlink.com 1.10,2013-03-27 07:12:00,
2013-03-27 03:27:00,31.3,25.0,29.96,SSW,202,3.0,-999.0,78,-99.99,,,0.00,weatherlink.com 1.10,2013-03-27 07:27:00,
2013-03-27 03:42:00,31.5,26.0,29.96,SW,223,0.0,-999.0,79,-99.99,,,0.00,weatherlink.com 1.10,2013-03-27 07:42:00,
2013-03-27 03:57:00,31.5,26.0,29.96,SSW,209,3.0,-999.0,80,-99.99,,,0.00,weatherlink.com 1.10,2013-03-27 07:57:00,
2013-03-27 04:27:00,31.5,26.0,29.95,WSW,252,0.0,-999.0,81,-99.99,,,0.00,weatherlink.com 1.10,2013-03-27 08:27:00,
2013-03-27 04:42:00,31.8,27.0,29.96,WSW,247,2.0,-999.0,82,-99.99,,,0.00,weatherlink.com 1.10,2013-03-27 08:42:00,
2013-03-27 04:57:00,31.9,27.0,29.96,West,263,0.0,-999.0,82,-99.99,,,0.00,weatherlink.com 1.10,2013-03-27 08:57:00,
2013-03-27 05:12:00,32.1,27.0,29.96,WSW,240,0.0,-999.0,82,-99.99,,,0.00,weatherlink.com 1.10,2013-03-27 09:12:00,
2013-03-27 05:27:00,32.4,28.0,29.96,SW,223,0.0,-999.0,82,-99.99,,,0.00,weatherlink.com 1.10,2013-03-27 09:27:00,
2013-03-27 05:42:00,32.5,28.0,29.97,WSW,244,0.0,-999.0,83,-99.99,,,0.00,weatherlink.com 1.10,2013-03-27 09:42:00,
2013-03-27 05:57:00,32.7,28.0,29.97,SW,233,0.0,-999.0,82,-99.99,,,0.00,weatherlink.com 1.10,2013-03-27 09:57:00,
2013-03-27 06:12:00,32.8,28.0,29.97,WSW,252,0.0,-999.0,82,-99.99,,,0.00,weatherlink.com 1.10,2013-03-27 10:12:00,
2013-03-27 06:27:00,32.8,28.0,29.98,SSW,210,0.0,-999.0,82,-99.99,,,0.00,weatherlink.com 1.10,2013-03-27 10:27:00,
2013-03-27 06:42:00,32.8,29.0,29.98,WSW,244,0.0,-999.0,84,-99.99,,,0.00,weatherlink.com 1.10,2013-03-27 10:42:00,
2013-03-27 06:57:00,32.7,28.0,29.98,SW,233,0.0,-999.0,84,-99.99,,,0.00,weatherlink.com 1.10,2013-03-27 10:57:00,
2013-03-27 07:12:00,32.7,28.0,29.98,SW,229,2.0,-999.0,84,-99.99,,,0.00,weatherlink.com 1.10,2013-03-27 11:12:00,
2013-03-27 07:27:00,32.8,29.0,29.99,SW,227,3.0,-999.0,84,-99.99,,,0.00,weatherlink.com 1.10,2013-03-27 11:27:00,
2013-03-27 07:42:00,32.9,29.0,29.99,West,265,0.0,-999.0,84,-99.99,,,0.00,weatherlink.com 1.10,2013-03-27 11:42:00,
2013-03-27 07:57:00,33.1,29.0,29.99,SW,235,0.0,-999.0,84,-99.99,,,0.00,weatherlink.com 1.10,2013-03-27 11:57:00,
2013-03-27 08:12:00,33.1,29.0,30.01,WSW,248,3.0,-999.0,84,-99.99,,,0.00,weatherlink.com 1.10,2013-03-27 12:12:00,
2013-03-27 08:27:00,33.4,29.0,30.01,SW,235,3.0,-999.0,84,-99.99,,,0.00,weatherlink.com 1.10,2013-03-27 12:27:00,
2013-03-27 08:42:00,33.5,29.0,30.01,WSW,238,2.0,-999.0,84,-99.99,,,0.00,weatherlink.com 1.10,2013-03-27 12:42:00,
2013-03-27 08:57:00,33.8,30.0,30.01,WSW,253,0.0,-999.0,84,-99.99,,,0.00,weatherlink.com 1.10,2013-03-27 12:57:00,
2013-03-27 09:12:00,34.4,29.0,30.01,SSW,213,4.0,-999.0,82,-99.99,,,0.00,weatherlink.com 1.10,2013-03-27 13:12:00,
2013-03-27 09:27:00,34.6,30.0,30.02,WSW,240,0.0,-999.0,82,-99.99,,,0.00,weatherlink.com 1.10,2013-03-27 13:27:00,
2013-03-27 09:42:00,34.9,30.0,30.02,WSW,237,7.0,-999.0,81,-99.99,,,0.00,weatherlink.com 1.10,2013-03-27 13:42:00,
2013-03-27 09:57:00,35.5,29.0,30.02,SW,234,0.0,-999.0,78,-99.99,,,0.00,weatherlink.com 1.10,2013-03-27 13:57:00,
2013-03-27 10:12:00,35.8,30.0,30.02,WSW,242,0.0,-999.0,78,-99.99,,,0.00,weatherlink.com 1.10,2013-03-27 14:12:00,
2013-03-27 10:27:00,36.5,30.0,30.01,SW,230,3.0,-999.0,76,-99.99,,,0.00,weatherlink.com 1.10,2013-03-27 14:27:00,
2013-03-27 10:42:00,37.2,30.0,30.02,WSW,256,4.0,-999.0,74,-99.99,,,0.00,weatherlink.com 1.10,2013-03-27 14:42:00,
2013-03-27 10:57:00,38.0,30.0,30.02,WSW,244,5.0,-999.0,73,-99.99,,,0.00,weatherlink.com 1.10,2013-03-27 14:57:00,
2013-03-27 11:12:00,38.2,30.0,30.02,SW,225,2.0,-999.0,71,-99.99,,,0.00,weatherlink.com 1.10,2013-03-27 15:12:00,
2013-03-27 11:27:00,37.9,30.0,30.02,WSW,242,1.0,-999.0,72,-99.99,,,0.00,weatherlink.com 1.10,2013-03-27 15:27:00,
2013-03-27 11:42:00,38.8,30.0,30.02,SW,214,5.0,-999.0,72,-99.99,,,0.00,weatherlink.com 1.10,2013-03-27 15:42:00,
2013-03-27 11:57:00,39.2,31.0,30.02,WSW,246,0.0,-999.0,73,-99.99,,,0.00,weatherlink.com 1.10,2013-03-27 15:57:00,
2013-03-27 12:12:00,39.2,31.0,30.02,SSW,206,5.0,-999.0,71,-99.99,,,0.00,weatherlink.com 1.10,2013-03-27 16:12:00,
2013-03-27 12:27:00,38.6,30.0,30.02,SW,226,3.0,-999.0,71,-99.99,,,0.00,weatherlink.com 1.10,2013-03-27 16:27:00,
2013-03-27 12:42:00,38.0,30.0,30.02,WSW,238,3.0,-999.0,72,-99.99,,,0.00,weatherlink.com 1.10,2013-03-27 16:42:00,
2013-03-27 12:57:00,36.9,30.0,30.03,SW,223,11.0,-999.0,75,-99.99,,,0.00,weatherlink.com 1.10,2013-03-27 16:57:00,
2013-03-27 13:12:00,35.3,30.0,30.03,WSW,253,6.0,-999.0,80,-99.99,,,0.00,weatherlink.com 1.10,2013-03-27 17:12:00,
2013-03-27 13:27:00,34.3,30.0,30.05,WSW,242,2.0,-999.0,83,-99.99,,,0.00,weatherlink.com 1.10,2013-03-27 17:27:00,
2013-03-27 13:42:00,33.5,30.0,30.04,SW,233,3.0,-999.0,87,-99.99,,,0.00,weatherlink.com 1.10,2013-03-27 17:42:00,
2013-03-27 13:57:00,33.4,30.0,30.04,SW,217,7.0,-999.0,88,-99.99,,,0.00,weatherlink.com 1.10,2013-03-27 17:57:00,
2013-03-27 14:12:00,32.9,30.0,30.04,SSW,205,0.0,-999.0,90,-99.99,,,0.00,weatherlink.com 1.10,2013-03-27 18:12:00,
2013-03-27 14:27:00,33.2,31.0,30.04,West,263,2.0,-999.0,90,-99.99,,,0.01,weatherlink.com 1.10,2013-03-27 18:27:00,
2013-03-27 14:42:00,32.5,30.0,30.04,WSW,238,6.0,-999.0,91,-99.99,,,0.01,weatherlink.com 1.10,2013-03-27 18:42:00,
2013-03-27 14:57:00,32.5,31.0,30.04,West,273,7.0,-999.0,92,-99.99,,,0.01,weatherlink.com 1.10,2013-03-27 18:57:00,
2013-03-27 15:13:00,32.5,31.0,30.04,WNW,284,6.0,-999.0,92,-99.99,,,0.02,weatherlink.com 1.10,2013-03-27 19:13:00,
2013-03-27 15:28:00,32.8,31.0,30.04,WSW,247,0.0,-999.0,92,-99.99,,,0.03,weatherlink.com 1.10,2013-03-27 19:28:00,
2013-03-27 15:43:00,32.9,31.0,30.04,SSW,210,17.0,-999.0,92,-99.99,,,0.04,weatherlink.com 1.10,2013-03-27 19:43:00,
2013-03-27 15:57:00,33.1,31.0,30.04,West,267,6.0,-999.0,92,-99.99,,,0.05,weatherlink.com 1.10,2013-03-27 19:57:00,
2013-03-27 16:12:00,32.7,31.0,30.04,SW,216,3.0,-999.0,92,-99.99,,,0.06,weatherlink.com 1.10,2013-03-27 20:12:00,
2013-03-27 16:27:00,32.5,31.0,30.04,SSW,207,2.0,-999.0,92,-99.99,,,0.06,weatherlink.com 1.10,2013-03-27 20:27:00,
2013-03-27 16:42:00,32.5,31.0,30.04,WSW,245,3.0,-999.0,93,-99.99,,,0.07,weatherlink.com 1.10,2013-03-27 20:42:00,
2013-03-27 16:57:00,32.8,31.0,30.05,WSW,244,2.0,-999.0,93,-99.99,,,0.07,weatherlink.com 1.10,2013-03-27 20:57:00,
2013-03-27 17:12:00,32.4,31.0,30.05,NW,319,1.0,-999.0,93,-99.99,,,0.07,weatherlink.com 1.10,2013-03-27 21:12:00,
2013-03-27 17:28:00,32.2,30.0,30.05,WSW,250,0.0,-999.0,93,-99.99,,,0.07,weatherlink.com 1.10,2013-03-27 21:28:00,
2013-03-27 17:43:00,32.4,31.0,30.05,SW,214,4.0,-999.0,93,-99.99,,,0.07,weatherlink.com 1.10,2013-03-27 21:43:00,
2013-03-27 17:57:00,32.4,31.0,30.05,SW,233,3.0,-999.0,94,-99.99,,,0.07,weatherlink.com 1.10,2013-03-27 21:57:00,
2013-03-27 18:13:00,32.4,31.0,30.05,SSW,193,3.0,-999.0,94,-99.99,,,0.08,weatherlink.com 1.10,2013-03-27 22:13:00,
2013-03-27 18:27:00,32.4,31.0,30.06,West,261,0.0,-999.0,94,-99.99,,,0.08,weatherlink.com 1.10,2013-03-27 22:27:00,
2013-03-27 18:43:00,32.5,31.0,30.06,South,169,0.0,-999.0,94,-99.99,,,0.08,weatherlink.com 1.10,2013-03-27 22:43:00,
2013-03-27 18:57:00,32.4,31.0,30.06,WSW,251,3.0,-999.0,94,-99.99,,,0.08,weatherlink.com 1.10,2013-03-27 22:57:00,
2013-03-27 19:12:00,32.5,31.0,30.06,WSW,246,0.0,-999.0,94,-99.99,,,0.08,weatherlink.com 1.10,2013-03-27 23:12:00,
2013-03-27 19:28:00,32.5,31.0,30.07,WSW,248,0.0,-999.0,94,-99.99,,,0.08,weatherlink.com 1.10,2013-03-27 23:28:00,
2013-03-27 19:43:00,32.5,31.0,30.07,West,260,1.0,-999.0,94,-99.99,,,0.08,weatherlink.com 1.10,2013-03-27 23:43:00,
2013-03-27 19:58:00,32.7,31.0,30.07,WSW,244,0.0,-999.0,94,-99.99,,,0.08,weatherlink.com 1.10,2013-03-27 23:58:00,
2013-03-27 20:13:00,32.7,31.0,30.07,West,271,0.0,-999.0,94,-99.99,,,0.09,weatherlink.com 1.10,2013-03-28 00:13:00,
2013-03-27 20:28:00,32.7,31.0,30.07,SW,235,1.0,-999.0,94,-99.99,,,0.09,weatherlink.com 1.10,2013-03-28 00:28:00,
2013-03-27 20:43:00,32.8,32.0,30.07,WSW,254,0.0,-999.0,95,-99.99,,,0.09,weatherlink.com 1.10,2013-03-28 00:43:00,
2013-03-27 20:58:00,32.8,32.0,30.07,SW,217,0.0,-999.0,95,-99.99,,,0.09,weatherlink.com 1.10,2013-03-28 00:58:00,
2013-03-27 21:13:00,32.9,32.0,30.07,WSW,240,0.0,-999.0,95,-99.99,,,0.09,weatherlink.com 1.10,2013-03-28 01:13:00,
2013-03-27 21:28:00,32.8,32.0,30.08,WSW,239,0.0,-999.0,95,-99.99,,,0.09,weatherlink.com 1.10,2013-03-28 01:28:00,
2013-03-27 21:43:00,32.9,32.0,30.08,SW,225,2.0,-999.0,95,-99.99,,,0.09,weatherlink.com 1.10,2013-03-28 01:43:00,
2013-03-27 21:58:00,32.9,32.0,30.08,WSW,254,2.0,-999.0,95,-99.99,,,0.09,weatherlink.com 1.10,2013-03-28 01:58:00,
2013-03-27 22:13:00,32.9,32.0,30.08,WSW,244,0.0,-999.0,95,-99.99,,,0.09,weatherlink.com 1.10,2013-03-28 02:13:00,
2013-03-27 22:28:00,32.9,32.0,30.08,West,263,0.0,-999.0,95,-99.99,,,0.09,weatherlink.com 1.10,2013-03-28 02:28:00,
2013-03-27 22:43:00,32.9,32.0,30.08,WNW,288,1.0,-999.0,95,-99.99,,,0.09,weatherlink.com 1.10,2013-03-28 02:43:00,
2013-03-27 22:58:00,32.9,32.0,30.08,West,268,0.0,-999.0,95,-99.99,,,0.09,weatherlink.com 1.10,2013-03-28 02:58:00,
2013-03-27 23:13:00,32.9,32.0,30.07,WSW,244,0.0,-999.0,95,-99.99,,,0.09,weatherlink.com 1.10,2013-03-28 03:13:00,
2013-03-27 23:28:00,32.8,32.0,30.07,WNW,289,0.0,-999.0,95,-99.99,,,0.09,weatherlink.com 1.10,2013-03-28 03:28:00,
2013-03-27 23:43:00,32.7,32.0,30.07,West,280,0.0,-999.0,95,-99.99,,,0.09,weatherlink.com 1.10,2013-03-28 03:43:00,
2013-03-27 23:58:00,32.5,31.0,30.07,NNE,19,0.0,-999.0,95,-99.99,,,0.09,weatherlink.com 1.10,2013-03-28 03:58:00,